Portada
METAR-TAF:

METAR-TAF

Aeroports :

Subang Jaya, Malàisia

latitud: 03-07N, longitud: 101-32E, altitud: 27 m

Observació

L'informe es va fer fa 1 hora i 1 minuts, a les 11:00 UTC
Vent 2 kt amb direcció variable
Temperatura 27°C
Humitat 89%
Pressió 1010 hPa
Visibilitat: 3000 m
Escasses núvols a una alçada de 2600 ft
Núvols disperses a una alçada de 14000 ft
Cel ennuvolat a una alçada de 27000 ft
calitja

METAR: WMSA 181100Z VRB02KT 3000 HZ FEW026 SCT140 BKN270 27/25 Q1010

Hora: 20:01 (12:01 UTC)

Pronòstic

L'informe es va fer fa 1 hora i 1 minuts, a les 11:00 UTC
Pronòstic vàlid del 18 a les 12 UTC al 19 a les 12 UTC
Vent 5 kt del Sud
Visibilitat: 3000 m
Escasses núvols a una alçada de 1700 ft, Cumulonimbus.
calitja
Evolucionant progressivament
l' 18 a les 12 UTC al 18 a les 13 UTC
Vent 2 kt amb direcció variable
Escasses núvols a una alçada de 2600 ft

TAF: WMSA 181100Z 1812/1912 17005KT 3000 HZ FEW017CB BECMG 1812/1813 VRB02KT FEW026

Observacions i pronòstics meteorològics de més de 4000 aeroports (METAR i TAF).

Les estacions disponibles són els punts grocs i vermells al mapa.

Posi el ratolí al punt desitjat per veure el nom de l'estació.

Feu clic per veure les observacions i els pronòstics meteorològics.

Per canviar el mapa: feu clic els botons verds amb una creu de color negre per apropar; al botó verd amb un guió per allunyar la imatge; o en les fletxes verdes per a mapes adjacents.


METAR-TAF: